Time;durP1;ratioP1;P1;durP2;ratioP2;P2;SDS_P1;SDS_P2;PMS_P1;PMS_P2;Temp;Humidity;BMP_temperature;BMP_pressure;BME280_temperature;BME280_humidity;BME280_pressure;Samples;Min_cycle;Max_cycle;Signal;HPM_P1;HPM_P2
2021/08/15 00:02:02;;;;;;;11.53;8.47;;;;;;;;;;5013886;28;20384;-78
2021/08/15 00:04:28;;;;;;;16.23;9.30;;;;;;;;;;5013598;28;20385;-82
2021/08/15 00:06:54;;;;;;;11.90;7.90;;;;;;;;;;5013934;28;20436;-78
2021/08/15 00:09:20;;;;;;;15.00;9.63;;;;;;;;;;5013855;28;20851;-80
2021/08/15 00:11:48;;;;;;;13.00;9.63;;;;;;;;;;5013875;28;20421;-78
2021/08/15 00:14:14;;;;;;;17.23;10.03;;;;;;;;;;4995918;28;20431;-83
2021/08/15 00:16:40;;;;;;;16.97;9.97;;;;;;;;;;5013678;28;20408;-78
2021/08/15 00:19:06;;;;;;;16.47;10.03;;;;;;;;;;5013887;28;20414;-80
2021/08/15 00:21:36;;;;;;;14.50;9.77;;;;;;;;;;5013913;28;20384;-80
2021/08/15 00:24:04;;;;;;;13.40;9.80;;;;;;;;;;4995818;28;20534;-80
2021/08/15 00:26:30;;;;;;;19.97;10.40;;;;;;;;;;5012947;28;20458;-80
2021/08/15 00:28:56;;;;;;;17.33;9.70;;;;;;;;;;4996198;28;20425;-81
2021/08/15 00:31:22;;;;;;;19.53;9.63;;;;;;;;;;5013596;28;20442;-79
2021/08/15 00:33:48;;;;;;;15.83;10.27;;;;;;;;;;5013580;28;20727;-80
2021/08/15 00:36:14;;;;;;;14.27;8.90;;;;;;;;;;4996031;28;20866;-84
2021/08/15 00:38:40;;;;;;;13.00;8.93;;;;;;;;;;4996493;28;20399;-80
2021/08/15 00:41:06;;;;;;;18.10;9.07;;;;;;;;;;4996264;28;20414;-81
2021/08/15 00:43:32;;;;;;;16.50;9.03;;;;;;;;;;5013114;28;20531;-81
2021/08/15 00:45:59;;;;;;;12.90;9.00;;;;;;;;;;5013303;28;20432;-81
2021/08/15 00:48:25;;;;;;;12.60;9.00;;;;;;;;;;5013422;28;20392;-82
2021/08/15 00:50:50;;;;;;;14.50;8.73;;;;;;;;;;5013401;28;20388;-81
2021/08/15 00:53:16;;;;;;;17.20;9.63;;;;;;;;;;5013099;28;20408;-80
2021/08/15 00:55:42;;;;;;;18.10;9.00;;;;;;;;;;5013192;28;20441;-83
2021/08/15 00:58:09;;;;;;;15.93;10.20;;;;;;;;;;5013234;28;20384;-81
2021/08/15 01:00:35;;;;;;;14.70;8.40;;;;;;;;;;5013203;28;20449;-79
2021/08/15 01:03:01;;;;;;;15.40;9.10;;;;;;;;;;5012987;28;20407;-81
2021/08/15 01:05:28;;;;;;;17.33;8.27;;;;;;;;;;5013108;28;20464;-82
2021/08/15 01:07:54;;;;;;;15.53;8.80;;;;;;;;;;5013240;28;20388;-84
2021/08/15 01:10:20;;;;;;;12.50;8.10;;;;;;;;;;5013037;28;20411;-81
2021/08/15 01:12:46;;;;;;;16.00;8.77;;;;;;;;;;5013011;28;20425;-81
2021/08/15 01:15:13;;;;;;;13.40;9.40;;;;;;;;;;5013066;28;20408;-81
2021/08/15 01:17:40;;;;;;;12.90;9.00;;;;;;;;;;4995936;28;20406;-81
2021/08/15 01:20:06;;;;;;;14.57;7.60;;;;;;;;;;5013099;28;20381;-83
2021/08/15 01:22:37;;;;;;;15.07;9.10;;;;;;;;;;5012985;28;20389;-82
2021/08/15 01:25:05;;;;;;;16.53;9.17;;;;;;;;;;4995033;28;20429;-81
2021/08/15 01:27:34;;;;;;;17.40;7.50;;;;;;;;;;5013027;28;20426;-80
2021/08/15 01:30:00;;;;;;;12.10;6.93;;;;;;;;;;5013120;28;20400;-80
2021/08/15 01:32:26;;;;;;;11.67;7.17;;;;;;;;;;5012932;28;20877;-83
2021/08/15 01:34:52;;;;;;;12.87;7.67;;;;;;;;;;5012628;28;20424;-80
2021/08/15 01:37:22;;;;;;;18.93;7.83;;;;;;;;;;5013123;28;20404;-83
2021/08/15 01:39:48;;;;;;;10.73;7.30;;;;;;;;;;5016200;28;20475;-80
2021/08/15 01:42:14;;;;;;;12.40;7.90;;;;;;;;;;5016661;28;20388;-83
2021/08/15 01:44:40;;;;;;;11.57;8.00;;;;;;;;;;5016144;28;20918;-79
2021/08/15 01:47:06;;;;;;;11.53;6.40;;;;;;;;;;5016584;28;20527;-80
2021/08/15 01:49:32;;;;;;;15.50;7.50;;;;;;;;;;5016475;28;20411;-79
2021/08/15 01:51:58;;;;;;;11.37;6.50;;;;;;;;;;5016450;28;20380;-82
2021/08/15 01:54:24;;;;;;;12.53;6.70;;;;;;;;;;4998674;28;20403;-80
2021/08/15 01:56:50;;;;;;;16.17;7.20;;;;;;;;;;5016397;28;20388;-83
2021/08/15 01:59:16;;;;;;;10.63;6.57;;;;;;;;;;4998738;28;20444;-82
2021/08/15 02:01:42;;;;;;;12.33;7.17;;;;;;;;;;5016308;28;20414;-82
2021/08/15 02:04:08;;;;;;;13.23;8.23;;;;;;;;;;5015991;28;20912;-82
2021/08/15 02:06:34;;;;;;;10.70;6.80;;;;;;;;;;5016241;28;20461;-83
2021/08/15 02:09:00;;;;;;;13.17;7.00;;;;;;;;;;5015993;28;20400;-84
2021/08/15 02:11:26;;;;;;;14.00;7.30;;;;;;;;;;5016118;28;20389;-82
2021/08/15 02:13:52;;;;;;;13.47;6.60;;;;;;;;;;5015793;28;20462;-83
2021/08/15 02:16:18;;;;;;;13.93;7.33;;;;;;;;;;5016224;28;20448;-82
2021/08/15 02:18:44;;;;;;;10.40;6.90;;;;;;;;;;5015940;28;20402;-83
2021/08/15 02:21:10;;;;;;;11.70;6.57;;;;;;;;;;5015954;28;20435;-80
2021/08/15 02:23:36;;;;;;;12.90;7.07;;;;;;;;;;5015608;28;20862;-82
2021/08/15 02:26:02;;;;;;;12.33;7.83;;;;;;;;;;4998250;28;20497;-80
2021/08/15 02:28:28;;;;;;;14.57;7.33;;;;;;;;;;5016035;28;20376;-80
2021/08/15 02:30:54;;;;;;;12.40;7.27;;;;;;;;;;5015792;28;20413;-78
2021/08/15 02:33:20;;;;;;;11.23;7.33;;;;;;;;;;5015477;28;20388;-81
2021/08/15 02:35:46;;;;;;;12.47;7.40;;;;;;;;;;5015516;28;20427;-81
2021/08/15 02:38:12;;;;;;;14.90;7.23;;;;;;;;;;5015533;28;20392;-84
2021/08/15 02:40:38;;;;;;;15.33;7.03;;;;;;;;;;5015537;28;20396;-79
2021/08/15 02:43:04;;;;;;;11.40;7.50;;;;;;;;;;4997445;28;20791;-81
2021/08/15 02:45:30;;;;;;;11.87;7.43;;;;;;;;;;5015305;28;20435;-81
2021/08/15 02:47:56;;;;;;;9.17;7.03;;;;;;;;;;5015415;28;20456;-80
2021/08/15 02:50:22;;;;;;;12.07;6.63;;;;;;;;;;4997306;28;20476;-78
2021/08/15 02:52:48;;;;;;;8.90;5.80;;;;;;;;;;5015310;28;20500;-83
2021/08/15 02:55:14;;;;;;;10.30;6.90;;;;;;;;;;5015148;28;20543;-78
2021/08/15 02:57:40;;;;;;;10.00;6.53;;;;;;;;;;5015204;28;20789;-80
2021/08/15 03:00:08;;;;;;;8.40;6.47;;;;;;;;;;5015199;28;20385;-78
2021/08/15 03:02:34;;;;;;;11.03;6.30;;;;;;;;;;5015033;28;20920;-80
2021/08/15 03:05:00;;;;;;;14.60;7.70;;;;;;;;;;5014738;28;20429;-82
2021/08/15 03:07:26;;;;;;;11.30;7.07;;;;;;;;;;5014893;28;20466;-82
2021/08/15 03:09:52;;;;;;;13.17;6.60;;;;;;;;;;5014902;28;20404;-83
2021/08/15 03:12:18;;;;;;;10.17;7.40;;;;;;;;;;4997633;28;20471;-78
2021/08/15 03:14:45;;;;;;;11.67;7.00;;;;;;;;;;5014687;28;20515;-81
2021/08/15 03:17:11;;;;;;;17.43;8.43;;;;;;;;;;4997187;28;20396;-80
2021/08/15 03:19:37;;;;;;;12.57;6.77;;;;;;;;;;5014753;28;20457;-80
2021/08/15 03:22:04;;;;;;;13.47;7.30;;;;;;;;;;5014830;28;20868;-80
2021/08/15 03:24:30;;;;;;;13.73;6.93;;;;;;;;;;5014272;28;20396;-79
2021/08/15 03:26:56;;;;;;;17.60;7.83;;;;;;;;;;5014528;28;20460;-80
2021/08/15 03:29:22;;;;;;;14.97;6.67;;;;;;;;;;5014589;28;20410;-80
2021/08/15 03:31:48;;;;;;;18.90;7.30;;;;;;;;;;5014565;28;20472;-79
2021/08/15 03:34:15;;;;;;;11.27;6.27;;;;;;;;;;5014275;28;20778;-81
2021/08/15 03:36:41;;;;;;;12.73;7.17;;;;;;;;;;4996975;28;20935;-83
2021/08/15 03:39:08;;;;;;;16.60;6.87;;;;;;;;;;5014423;28;20392;-82
2021/08/15 03:41:34;;;;;;;9.17;6.30;;;;;;;;;;5014413;28;20421;-82
2021/08/15 03:44:00;;;;;;;10.30;6.67;;;;;;;;;;5014197;28;20436;-78
2021/08/15 03:46:26;;;;;;;11.73;7.20;;;;;;;;;;4996506;28;20440;-81
2021/08/15 03:48:52;;;;;;;10.07;6.33;;;;;;;;;;5014276;28;20409;-79
2021/08/15 03:51:18;;;;;;;12.67;6.80;;;;;;;;;;5014171;28;20384;-78
2021/08/15 03:53:44;;;;;;;10.77;7.17;;;;;;;;;;5013819;28;20405;-83
2021/08/15 03:56:10;;;;;;;15.93;6.90;;;;;;;;;;5014153;28;20434;-82
2021/08/15 03:58:36;;;;;;;16.00;6.57;;;;;;;;;;5014093;28;20422;-81
2021/08/15 04:01:02;;;;;;;13.17;6.60;;;;;;;;;;5013306;28;20392;-82
2021/08/15 04:03:28;;;;;;;8.50;6.53;;;;;;;;;;5013998;28;20421;-78
2021/08/15 04:05:59;;;;;;;8.17;6.20;;;;;;;;;;5013838;28;20981;-81
2021/08/15 04:08:26;;;;;;;8.63;5.77;;;;;;;;;;5014246;28;20403;-84
2021/08/15 04:10:52;;;;;;;11.83;6.00;;;;;;;;;;5014001;28;20405;-79
2021/08/15 04:13:18;;;;;;;9.13;6.80;;;;;;;;;;5013600;28;20422;-80
2021/08/15 04:15:44;;;;;;;13.30;6.37;;;;;;;;;;5013582;28;20404;-79
2021/08/15 04:18:11;;;;;;;12.57;6.20;;;;;;;;;;5013877;28;20420;-82
2021/08/15 04:20:37;;;;;;;13.40;7.50;;;;;;;;;;5013832;28;20413;-83
2021/08/15 04:23:03;;;;;;;9.97;5.87;;;;;;;;;;4995980;28;20838;-80
2021/08/15 04:25:29;;;;;;;12.23;6.10;;;;;;;;;;4996268;28;20469;-81
2021/08/15 04:27:55;;;;;;;12.40;6.77;;;;;;;;;;5013598;28;20937;-81
2021/08/15 04:30:21;;;;;;;9.73;6.30;;;;;;;;;;5013835;28;20434;-81
2021/08/15 04:32:47;;;;;;;9.77;6.50;;;;;;;;;;5013362;28;20399;-83
2021/08/15 04:35:13;;;;;;;11.10;7.30;;;;;;;;;;5013595;28;20484;-84
2021/08/15 04:37:39;;;;;;;16.03;6.60;;;;;;;;;;5013697;28;20389;-82
2021/08/15 04:40:05;;;;;;;11.97;7.20;;;;;;;;;;5013390;28;20392;-84
2021/08/15 04:42:31;;;;;;;15.00;7.83;;;;;;;;;;5013514;28;20868;-80
2021/08/15 04:44:57;;;;;;;12.60;6.70;;;;;;;;;;5013292;28;20451;-81
2021/08/15 04:47:23;;;;;;;11.60;6.60;;;;;;;;;;5013455;28;20489;-81
2021/08/15 04:49:49;;;;;;;11.00;6.87;;;;;;;;;;5013360;28;20406;-83
2021/08/15 04:52:15;;;;;;;14.20;7.17;;;;;;;;;;5013452;28;20381;-80
2021/08/15 04:54:41;;;;;;;12.40;7.17;;;;;;;;;;5013288;28;20434;-80
2021/08/15 04:57:07;;;;;;;14.93;7.10;;;;;;;;;;5013471;28;20751;-84
2021/08/15 04:59:33;;;;;;;11.17;6.90;;;;;;;;;;5013378;28;20472;-83
2021/08/15 05:02:02;;;;;;;9.40;6.60;;;;;;;;;;4996154;28;20514;-79
2021/08/15 05:04:29;;;;;;;19.27;7.30;;;;;;;;;;4995428;28;20423;-79
2021/08/15 05:06:54;;;;;;;11.53;6.53;;;;;;;;;;5013530;28;20462;-82
2021/08/15 05:09:20;;;;;;;14.70;6.50;;;;;;;;;;5013657;28;20442;-80
2021/08/15 05:11:48;;;;;;;10.50;6.80;;;;;;;;;;5013815;28;20797;-82
2021/08/15 05:14:14;;;;;;;10.40;6.73;;;;;;;;;;5017071;28;20903;-82
2021/08/15 05:16:40;;;;;;;11.47;6.50;;;;;;;;;;5017163;28;20419;-79
2021/08/15 05:19:06;;;;;;;20.40;7.57;;;;;;;;;;5017361;28;20414;-81
2021/08/15 05:21:32;;;;;;;8.30;5.90;;;;;;;;;;5017222;28;20500;-82
2021/08/15 05:23:58;;;;;;;8.53;5.97;;;;;;;;;;4999559;28;20504;-85
2021/08/15 05:26:24;;;;;;;17.20;5.83;;;;;;;;;;5016899;28;20440;-80
2021/08/15 05:28:50;;;;;;;8.87;5.93;;;;;;;;;;5017000;28;20421;-82
2021/08/15 05:31:16;;;;;;;10.00;5.70;;;;;;;;;;5016981;28;20413;-81
2021/08/15 05:33:42;;;;;;;13.17;6.10;;;;;;;;;;5016646;28;20556;-78
2021/08/15 05:36:08;;;;;;;11.17;6.03;;;;;;;;;;5019097;28;20412;-85
2021/08/15 05:38:34;;;;;;;10.47;5.73;;;;;;;;;;5017850;28;20418;-81
2021/08/15 05:41:00;;;;;;;8.70;5.33;;;;;;;;;;5017596;28;20409;-82
2021/08/15 05:43:26;;;;;;;10.40;5.50;;;;;;;;;;5016614;28;20874;-81
2021/08/15 05:45:52;;;;;;;8.60;5.60;;;;;;;;;;5016729;28;20486;-79
2021/08/15 05:48:18;;;;;;;9.17;4.93;;;;;;;;;;5016753;28;20392;-79
2021/08/15 05:50:45;;;;;;;10.87;5.20;;;;;;;;;;4983274;28;20447;-82
2021/08/15 05:53:11;;;;;;;8.53;4.70;;;;;;;;;;5016332;28;20479;-81
2021/08/15 05:55:37;;;;;;;11.57;4.70;;;;;;;;;;5016488;28;20444;-84
2021/08/15 05:58:03;;;;;;;14.60;5.30;;;;;;;;;;5016609;28;20416;-79
2021/08/15 06:00:29;;;;;;;11.60;5.63;;;;;;;;;;5016380;28;20396;-80
2021/08/15 06:02:55;;;;;;;8.43;5.00;;;;;;;;;;5015977;28;20468;-81
2021/08/15 06:05:21;;;;;;;7.30;4.80;;;;;;;;;;5016207;28;20580;-81
2021/08/15 06:07:47;;;;;;;8.03;4.90;;;;;;;;;;5016438;28;20505;-81
2021/08/15 06:10:13;;;;;;;7.60;5.10;;;;;;;;;;5016555;28;20970;-84
2021/08/15 06:12:39;;;;;;;7.73;5.33;;;;;;;;;;5016197;28;20568;-80
2021/08/15 06:15:07;;;;;;;13.00;5.03;;;;;;;;;;5016111;28;20790;-82
2021/08/15 06:17:33;;;;;;;10.27;4.93;;;;;;;;;;5016242;28;20410;-80
2021/08/15 06:19:59;;;;;;;7.27;5.30;;;;;;;;;;5016227;28;20417;-82
2021/08/15 06:22:26;;;;;;;7.33;4.80;;;;;;;;;;5016108;28;20388;-83
2021/08/15 06:24:52;;;;;;;7.23;5.03;;;;;;;;;;4997454;28;20408;-81
2021/08/15 06:27:18;;;;;;;8.07;4.37;;;;;;;;;;5015830;28;20457;-80
2021/08/15 06:29:44;;;;;;;9.27;4.37;;;;;;;;;;5016081;28;20793;-80
2021/08/15 06:32:10;;;;;;;8.27;4.20;;;;;;;;;;5018023;28;20744;-85
2021/08/15 06:34:36;;;;;;;9.23;5.13;;;;;;;;;;5016567;28;20475;-80
2021/08/15 06:37:05;;;;;;;4.77;3.70;;;;;;;;;;5016478;28;20421;-82
2021/08/15 06:39:31;;;;;;;7.47;4.57;;;;;;;;;;5016657;28;20400;-80
2021/08/15 06:41:57;;;;;;;7.73;4.60;;;;;;;;;;5016018;28;20428;-82
2021/08/15 06:44:23;;;;;;;5.90;3.93;;;;;;;;;;5015677;28;20471;-82
2021/08/15 06:46:49;;;;;;;6.40;4.20;;;;;;;;;;5015760;28;20811;-80
2021/08/15 06:49:16;;;;;;;12.97;4.13;;;;;;;;;;5015501;28;20410;-80
2021/08/15 06:51:44;;;;;;;8.63;4.40;;;;;;;;;;5015536;28;20464;-80
2021/08/15 06:54:10;;;;;;;7.30;4.50;;;;;;;;;;5016103;28;20392;-81
2021/08/15 06:56:36;;;;;;;9.97;4.60;;;;;;;;;;5015261;28;20930;-80
2021/08/15 06:59:03;;;;;;;8.13;4.23;;;;;;;;;;5015463;28;20500;-84
2021/08/15 07:01:29;;;;;;;6.43;3.80;;;;;;;;;;5015418;28;20389;-78
2021/08/15 07:03:54;;;;;;;7.60;3.80;;;;;;;;;;5014767;28;20496;-77
2021/08/15 07:06:21;;;;;;;7.50;4.03;;;;;;;;;;4997310;28;20440;-77
2021/08/15 07:08:47;;;;;;;4.90;3.50;;;;;;;;;;5014873;28;20437;-78
2021/08/15 07:11:12;;;;;;;7.10;3.37;;;;;;;;;;5015211;28;20409;-82
2021/08/15 07:13:40;;;;;;;7.47;3.57;;;;;;;;;;5014930;28;20493;-78
2021/08/15 07:16:06;;;;;;;4.30;3.33;;;;;;;;;;5014796;28;20438;-80
2021/08/15 07:18:32;;;;;;;4.67;3.30;;;;;;;;;;5014975;28;20725;-82
2021/08/15 07:21:00;;;;;;;6.83;3.37;;;;;;;;;;5015361;28;20834;-80
2021/08/15 07:23:26;;;;;;;5.67;2.70;;;;;;;;;;5014630;28;20471;-81
2021/08/15 07:25:52;;;;;;;4.70;3.70;;;;;;;;;;5014745;28;20568;-83
2021/08/15 07:28:18;;;;;;;6.50;3.53;;;;;;;;;;5014958;28;20414;-83
2021/08/15 07:30:44;;;;;;;3.57;3.00;;;;;;;;;;5014890;28;20557;-83
2021/08/15 07:33:10;;;;;;;5.50;3.47;;;;;;;;;;5014338;28;20410;-82
2021/08/15 07:35:37;;;;;;;8.90;3.10;;;;;;;;;;4996890;28;20427;-83
2021/08/15 07:38:03;;;;;;;4.60;3.23;;;;;;;;;;5014598;28;20413;-79
2021/08/15 07:40:30;;;;;;;4.77;3.13;;;;;;;;;;5014328;28;20473;-79
2021/08/15 07:42:56;;;;;;;4.73;3.03;;;;;;;;;;5014022;28;20464;-81
2021/08/15 07:45:23;;;;;;;5.30;3.13;;;;;;;;;;5014093;28;20500;-82
2021/08/15 07:47:49;;;;;;;5.90;3.30;;;;;;;;;;5014333;28;20410;-81
2021/08/15 07:50:15;;;;;;;5.00;3.07;;;;;;;;;;5014206;28;20429;-79
2021/08/15 07:52:41;;;;;;;5.10;3.23;;;;;;;;;;5014288;28;20448;-81
2021/08/15 07:55:08;;;;;;;4.73;2.83;;;;;;;;;;4996356;28;20445;-81
2021/08/15 07:57:34;;;;;;;4.60;3.00;;;;;;;;;;4996393;28;20418;-79
2021/08/15 08:00:00;;;;;;;5.57;3.17;;;;;;;;;;5014026;28;20421;-79
2021/08/15 08:02:26;;;;;;;5.70;3.20;;;;;;;;;;4996478;28;20456;-81
2021/08/15 08:04:52;;;;;;;4.90;3.10;;;;;;;;;;5013527;28;20480;-81
2021/08/15 08:07:19;;;;;;;5.17;3.30;;;;;;;;;;5014061;28;20444;-81
2021/08/15 08:09:52;;;;;;;4.30;3.20;;;;;;;;;;5013949;28;20792;-80
2021/08/15 08:12:19;;;;;;;5.63;3.10;;;;;;;;;;5014115;28;20448;-83
2021/08/15 08:14:45;;;;;;;3.80;2.77;;;;;;;;;;4980012;28;21012;-81
2021/08/15 08:17:13;;;;;;;7.83;3.60;;;;;;;;;;5014089;28;20933;-80
2021/08/15 08:19:39;;;;;;;7.10;3.47;;;;;;;;;;5013943;28;20422;-82
2021/08/15 08:22:06;;;;;;;3.77;3.17;;;;;;;;;;4996561;28;20457;-79
2021/08/15 08:24:32;;;;;;;3.13;2.83;;;;;;;;;;5013637;28;20441;-83
2021/08/15 08:26:58;;;;;;;3.53;2.63;;;;;;;;;;5014698;28;20453;-82
2021/08/15 08:29:24;;;;;;;3.13;2.70;;;;;;;;;;5013997;28;20433;-78
2021/08/15 08:31:50;;;;;;;4.30;2.83;;;;;;;;;;5013620;28;20410;-81
2021/08/15 08:34:16;;;;;;;4.37;2.77;;;;;;;;;;5013334;28;20445;-82
2021/08/15 08:36:42;;;;;;;5.90;2.80;;;;;;;;;;4996166;28;20964;-78
2021/08/15 08:39:08;;;;;;;4.63;2.40;;;;;;;;;;5013775;28;20416;-83
2021/08/15 08:41:36;;;;;;;5.63;3.20;;;;;;;;;;4996212;28;20509;-82
2021/08/15 08:44:02;;;;;;;4.70;2.90;;;;;;;;;;5013563;28;20417;-79
2021/08/15 08:46:28;;;;;;;5.93;2.53;;;;;;;;;;5013175;28;20465;-80
2021/08/15 08:48:55;;;;;;;4.23;2.83;;;;;;;;;;5013607;28;20485;-80
2021/08/15 08:51:22;;;;;;;3.83;2.80;;;;;;;;;;5013717;28;20405;-81
2021/08/15 08:53:49;;;;;;;4.17;2.90;;;;;;;;;;5013363;28;20909;-80
2021/08/15 08:56:16;;;;;;;4.97;2.97;;;;;;;;;;5013530;28;20440;-83
2021/08/15 08:58:42;;;;;;;3.63;3.00;;;;;;;;;;4996181;28;20417;-84
2021/08/15 09:01:12;;;;;;;4.60;2.57;;;;;;;;;;5013496;28;20417;-83
2021/08/15 09:03:38;;;;;;;6.90;3.07;;;;;;;;;;5013090;28;20406;-82
2021/08/15 09:06:17;;;;;;;5.70;2.60;;;;;;;;;;5013416;28;20549;-82
2021/08/15 09:08:43;;;;;;;5.30;2.93;;;;;;;;;;5013281;28;20781;-81
2021/08/15 09:11:19;;;;;;;3.73;2.37;;;;;;;;;;5013220;28;20413;-79
2021/08/15 09:13:59;;;;;;;4.00;2.60;;;;;;;;;;5012856;28;20416;-79
2021/08/15 09:16:25;;;;;;;9.83;3.00;;;;;;;;;;5013037;28;20499;-79
2021/08/15 09:18:51;;;;;;;3.73;2.13;;;;;;;;;;5013112;28;20426;-81
2021/08/15 09:21:29;;;;;;;3.10;2.30;;;;;;;;;;5013203;28;20418;-79
2021/08/15 09:24:01;;;;;;;2.93;2.37;;;;;;;;;;5012743;28;20409;-82
2021/08/15 09:26:27;;;;;;;6.43;2.70;;;;;;;;;;5012994;28;20523;-78
2021/08/15 09:28:53;;;;;;;3.63;2.70;;;;;;;;;;5012958;28;20446;-82
2021/08/15 09:31:25;;;;;;;6.07;2.57;;;;;;;;;;4995597;28;20461;-79
2021/08/15 09:33:55;;;;;;;3.60;2.40;;;;;;;;;;5012925;28;20421;-77
2021/08/15 09:36:40;;;;;;;5.10;2.93;;;;;;;;;;5012915;28;20437;-78
2021/08/15 09:39:07;;;;;;;5.23;2.83;;;;;;;;;;5013045;28;20406;-81
2021/08/15 09:41:34;;;;;;;4.37;2.80;;;;;;;;;;5013930;28;20416;-77
2021/08/15 09:44:19;;;;;;;5.40;2.47;;;;;;;;;;5012870;28;20437;-78
2021/08/15 09:47:04;;;;;;;6.10;3.27;;;;;;;;;;5012906;28;20516;-76
2021/08/15 09:49:33;;;;;;;3.97;2.90;;;;;;;;;;5013254;28;20768;-82
2021/08/15 09:51:59;;;;;;;7.57;3.77;;;;;;;;;;5012994;28;20493;-79
2021/08/15 09:54:25;;;;;;;5.53;3.23;;;;;;;;;;5012370;28;20445;-78
2021/08/15 09:56:51;;;;;;;8.23;3.23;;;;;;;;;;5012801;28;20408;-80
2021/08/15 09:59:20;;;;;;;3.53;2.57;;;;;;;;;;5014231;28;20501;-78
2021/08/15 10:01:48;;;;;;;5.73;3.50;;;;;;;;;;5016508;28;20402;-81
2021/08/15 10:04:14;;;;;;;4.87;3.03;;;;;;;;;;5015778;28;20758;-79
2021/08/15 10:06:41;;;;;;;9.17;2.90;;;;;;;;;;4998561;28;20464;-83
2021/08/15 10:09:07;;;;;;;7.30;3.20;;;;;;;;;;5016611;28;20425;-81
2021/08/15 10:11:33;;;;;;;6.13;3.17;;;;;;;;;;5016306;28;20434;-78
2021/08/15 10:14:00;;;;;;;6.10;2.80;;;;;;;;;;4998154;28;20915;-78
2021/08/15 10:16:35;;;;;;;3.10;2.50;;;;;;;;;;5016068;28;20441;-77
2021/08/15 10:19:02;;;;;;;7.13;4.07;;;;;;;;;;5016154;28;20414;-77
2021/08/15 10:21:29;;;;;;;5.00;2.57;;;;;;;;;;5016207;28;20445;-76
2021/08/15 10:24:05;;;;;;;3.60;3.03;;;;;;;;;;5015737;28;20409;-78
2021/08/15 10:26:37;;;;;;;8.40;3.43;;;;;;;;;;5015586;28;20861;-77
2021/08/15 10:29:04;;;;;;;6.50;2.80;;;;;;;;;;4998149;28;20418;-76
2021/08/15 10:31:49;;;;;;;5.97;3.30;;;;;;;;;;5015801;28;20521;-78
2021/08/15 10:34:18;;;;;;;4.50;2.50;;;;;;;;;;5015621;28;20406;-76
2021/08/15 10:36:44;;;;;;;4.37;3.10;;;;;;;;;;5015652;28;20471;-78
2021/08/15 10:39:35;;;;;;;8.00;3.60;;;;;;;;;;5015772;28;20421;-76
2021/08/15 10:42:01;;;;;;;3.10;2.33;;;;;;;;;;5015816;28;20410;-77
2021/08/15 10:44:27;;;;;;;3.60;2.73;;;;;;;;;;5015447;28;20424;-79
2021/08/15 10:47:10;;;;;;;6.40;3.20;;;;;;;;;;4997779;28;20469;-76
2021/08/15 10:49:48;;;;;;;7.73;3.73;;;;;;;;;;5015527;28;20420;-78
2021/08/15 10:52:28;;;;;;;6.23;3.00;;;;;;;;;;4997782;28;20421;-78
2021/08/15 10:54:59;;;;;;;4.60;2.90;;;;;;;;;;5014937;28;20461;-78
2021/08/15 10:57:39;;;;;;;4.20;3.00;;;;;;;;;;5015270;28;20402;-79
2021/08/15 11:00:23;;;;;;;4.83;2.77;;;;;;;;;;5015300;28;20405;-78
2021/08/15 11:02:49;;;;;;;7.90;3.27;;;;;;;;;;5014786;28;20409;-78
2021/08/15 11:05:33;;;;;;;4.97;3.10;;;;;;;;;;5015035;28;20465;-77
2021/08/15 11:07:59;;;;;;;4.43;3.20;;;;;;;;;;5015288;28;20468;-76
2021/08/15 11:10:25;;;;;;;5.07;3.13;;;;;;;;;;5014676;28;20491;-77
2021/08/15 11:13:10;;;;;;;8.47;2.90;;;;;;;;;;5014615;28;20410;-78
2021/08/15 11:15:35;;;;;;;9.57;4.00;;;;;;;;;;5014849;28;20828;-77
2021/08/15 11:18:09;;;;;;;8.40;3.53;;;;;;;;;;5015188;28;20410;-78
2021/08/15 11:20:36;;;;;;;8.20;3.17;;;;;;;;;;5014995;28;20434;-78
2021/08/15 11:23:10;;;;;;;8.37;3.00;;;;;;;;;;5014700;28;20413;-77
2021/08/15 11:25:36;;;;;;;5.67;3.27;;;;;;;;;;5022530;28;20508;-77
2021/08/15 11:28:02;;;;;;;5.03;3.00;;;;;;;;;;5016337;28;20409;-77
2021/08/15 11:30:28;;;;;;;5.47;3.30;;;;;;;;;;5015144;28;20417;-78
2021/08/15 11:32:56;;;;;;;5.63;2.90;;;;;;;;;;5014659;28;20414;-78
2021/08/15 11:35:22;;;;;;;5.83;2.63;;;;;;;;;;5014423;28;20421;-78
2021/08/15 11:37:49;;;;;;;3.77;2.80;;;;;;;;;;5014585;28;20435;-77
2021/08/15 11:40:20;;;;;;;7.37;3.37;;;;;;;;;;5014630;28;20770;-78
2021/08/15 11:42:57;;;;;;;7.73;3.23;;;;;;;;;;5014182;28;20413;-76
2021/08/15 11:45:31;;;;;;;5.77;3.23;;;;;;;;;;5014300;28;20440;-78
2021/08/15 11:47:57;;;;;;;4.70;2.80;;;;;;;;;;5014453;28;20414;-76
2021/08/15 11:50:23;;;;;;;5.53;3.37;;;;;;;;;;5014253;28;20987;-78
2021/08/15 11:52:49;;;;;;;7.47;2.90;;;;;;;;;;5013924;28;20900;-76
2021/08/15 11:55:20;;;;;;;8.40;3.43;;;;;;;;;;5013577;28;20429;-77
2021/08/15 11:57:47;;;;;;;8.80;3.03;;;;;;;;;;5013678;28;20406;-78
2021/08/15 12:00:14;;;;;;;7.00;3.30;;;;;;;;;;5013731;28;20413;-76
2021/08/15 12:02:40;;;;;;;4.93;2.80;;;;;;;;;;5013422;28;20492;-77
2021/08/15 12:05:06;;;;;;;6.47;2.90;;;;;;;;;;5013298;28;20847;-77
2021/08/15 12:07:32;;;;;;;4.40;2.67;;;;;;;;;;5013444;28;20851;-76
2021/08/15 12:10:17;;;;;;;4.77;3.20;;;;;;;;;;5013608;28;20440;-78
2021/08/15 12:12:43;;;;;;;4.20;3.23;;;;;;;;;;5013931;28;20402;-77
2021/08/15 12:15:09;;;;;;;6.23;2.70;;;;;;;;;;4996319;28;20914;-77
2021/08/15 12:17:51;;;;;;;4.27;3.17;;;;;;;;;;5013407;28;20418;-76
2021/08/15 12:20:23;;;;;;;5.20;2.70;;;;;;;;;;5014017;28;20414;-77
2021/08/15 12:22:49;;;;;;;3.60;2.50;;;;;;;;;;5012836;28;20422;-77
2021/08/15 12:25:23;;;;;;;4.33;2.73;;;;;;;;;;5013756;28;20512;-78
2021/08/15 12:27:49;;;;;;;4.63;2.60;;;;;;;;;;5013624;28;20453;-76
2021/08/15 12:30:28;;;;;;;6.20;2.70;;;;;;;;;;5013729;28;20410;-77
2021/08/15 12:32:54;;;;;;;7.00;2.80;;;;;;;;;;5013475;28;20406;-76
2021/08/15 12:35:26;;;;;;;3.50;2.20;;;;;;;;;;5013632;28;20429;-75
2021/08/15 12:37:56;;;;;;;5.43;2.60;;;;;;;;;;5013557;28;20414;-77
2021/08/15 12:40:32;;;;;;;3.50;2.60;;;;;;;;;;5013573;28;20410;-79
2021/08/15 12:42:59;;;;;;;4.67;2.30;;;;;;;;;;4996698;28;20765;-78
2021/08/15 12:45:37;;;;;;;2.60;2.27;;;;;;;;;;5013573;28;20432;-75
2021/08/15 12:48:04;;;;;;;3.70;2.13;;;;;;;;;;5013692;28;20429;-75
2021/08/15 12:50:31;;;;;;;5.53;2.43;;;;;;;;;;4995925;28;20920;-76
2021/08/15 12:52:58;;;;;;;6.20;2.40;;;;;;;;;;5013057;28;20394;-75
2021/08/15 12:55:30;;;;;;;4.30;2.50;;;;;;;;;;5013299;28;20417;-76
2021/08/15 12:57:56;;;;;;;3.50;2.00;;;;;;;;;;5013559;28;20464;-75
2021/08/15 13:00:23;;;;;;;7.40;2.63;;;;;;;;;;5013430;28;20762;-75
2021/08/15 13:02:51;;;;;;;5.87;2.67;;;;;;;;;;5012908;28;20402;-74
2021/08/15 13:05:17;;;;;;;3.63;2.60;;;;;;;;;;5013537;28;20853;-75
2021/08/15 13:07:44;;;;;;;2.43;2.10;;;;;;;;;;5013110;28;20821;-74
2021/08/15 13:10:11;;;;;;;4.40;2.50;;;;;;;;;;5013185;28;20469;-74
2021/08/15 13:12:37;;;;;;;2.33;2.07;;;;;;;;;;5013179;28;20410;-76
2021/08/15 13:15:04;;;;;;;4.27;2.93;;;;;;;;;;5012779;28;20422;-77
2021/08/15 13:17:31;;;;;;;5.50;2.10;;;;;;;;;;5013124;28;20409;-76
2021/08/15 13:19:57;;;;;;;6.00;2.43;;;;;;;;;;5012957;28;20464;-76
2021/08/15 13:22:23;;;;;;;6.70;2.00;;;;;;;;;;5013108;28;20417;-77
2021/08/15 13:24:49;;;;;;;4.60;2.10;;;;;;;;;;5012855;28;20441;-76
2021/08/15 13:27:15;;;;;;;4.87;2.60;;;;;;;;;;5012981;28;20527;-79
2021/08/15 13:29:41;;;;;;;2.80;2.23;;;;;;;;;;5013031;28;20412;-76
2021/08/15 13:32:07;;;;;;;6.30;2.57;;;;;;;;;;5012844;28;20417;-75
2021/08/15 13:34:33;;;;;;;6.60;4.40;;;;;;;;;;5015091;28;20421;-77
2021/08/15 13:37:00;;;;;;;6.33;2.97;;;;;;;;;;5016701;28;20425;-77
2021/08/15 13:39:26;;;;;;;5.20;3.43;;;;;;;;;;5016790;28;20412;-77
2021/08/15 13:41:52;;;;;;;5.90;3.20;;;;;;;;;;5016760;28;20436;-77
2021/08/15 13:44:19;;;;;;;6.30;4.00;;;;;;;;;;5016214;28;20422;-78
2021/08/15 13:46:45;;;;;;;4.30;2.30;;;;;;;;;;5016581;28;20833;-76
2021/08/15 13:49:11;;;;;;;5.10;2.40;;;;;;;;;;5016549;28;20406;-77
2021/08/15 13:51:37;;;;;;;3.40;2.93;;;;;;;;;;5016339;28;20413;-77
2021/08/15 13:54:05;;;;;;;5.13;3.00;;;;;;;;;;5016065;28;20410;-77
2021/08/15 13:56:33;;;;;;;5.33;2.90;;;;;;;;;;4996966;28;20577;-75
2021/08/15 13:58:59;;;;;;;3.67;2.37;;;;;;;;;;4996938;28;20420;-75
2021/08/15 14:01:25;;;;;;;5.43;3.77;;;;;;;;;;4996906;28;20955;-77
2021/08/15 14:03:51;;;;;;;7.63;4.07;;;;;;;;;;4996393;28;20489;-77
2021/08/15 14:06:17;;;;;;;2.47;2.27;;;;;;;;;;4996470;28;20618;-76
2021/08/15 14:08:43;;;;;;;4.70;3.17;;;;;;;;;;4996532;28;20455;-75
2021/08/15 14:11:10;;;;;;;5.60;4.80;;;;;;;;;;4996700;28;20407;-77
2021/08/15 14:13:36;;;;;;;3.50;2.10;;;;;;;;;;4996309;28;20438;-74
2021/08/15 14:16:02;;;;;;;4.17;2.30;;;;;;;;;;4996463;28;20466;-74
2021/08/15 14:18:28;;;;;;;4.73;2.60;;;;;;;;;;4996418;28;20457;-75
2021/08/15 14:20:54;;;;;;;4.57;2.73;;;;;;;;;;4996481;28;20774;-75
2021/08/15 14:23:20;;;;;;;3.37;2.33;;;;;;;;;;4996058;28;20425;-77
2021/08/15 14:25:46;;;;;;;3.97;2.50;;;;;;;;;;4996278;28;20447;-73
2021/08/15 14:28:12;;;;;;;10.57;5.87;;;;;;;;;;4996932;28;20426;-78
2021/08/15 14:30:38;;;;;;;5.20;3.00;;;;;;;;;;4997189;28;20422;-77
2021/08/15 14:33:05;;;;;;;3.63;2.73;;;;;;;;;;4996118;28;20442;-76
2021/08/15 14:35:31;;;;;;;5.23;2.40;;;;;;;;;;4996080;28;20429;-74
2021/08/15 14:37:56;;;;;;;3.90;2.50;;;;;;;;;;4979832;28;20427;-75
2021/08/15 14:40:22;;;;;;;4.10;2.50;;;;;;;;;;4996223;28;20453;-76